Time;durP1;ratioP1;P1;durP2;ratioP2;P2;SDS_P1;SDS_P2;PMS_P1;PMS_P2;Temp;Humidity;BMP_temperature;BMP_pressure;BME280_temperature;BME280_humidity;BME280_pressure;Samples;Min_cycle;Max_cycle;Signal;HPM_P1;HPM_P2
2022/11/26 00:01:40;;;;;;;11.35;5.45;;;7.60;99.90;;;6.61;100.00;102449.34;4218259;28;20032;-74
2022/11/26 00:03:41;;;;;;;11.32;5.97;;;7.50;99.90;;;6.60;100.00;102450.28;4251780;27;20087;-75
2022/11/26 00:05:46;;;;;;;14.80;6.57;;;7.50;99.90;;;6.56;100.00;102448.78;4219500;28;20024;-75
2022/11/26 00:07:58;;;;;;;13.55;5.82;;;7.50;99.90;;;6.57;100.00;102444.38;4219161;28;20024;-75
2022/11/26 00:10:00;;;;;;;12.98;5.57;;;7.50;99.90;;;6.56;100.00;102454.03;4238125;27;20040;-75
2022/11/26 00:12:21;;;;;;;11.70;5.95;;;7.50;99.90;;;6.58;100.00;102460.00;4217678;28;20038;-75
2022/11/26 00:14:22;;;;;;;13.07;5.95;;;7.40;99.90;;;6.53;100.00;102456.81;4234252;28;20032;-75
2022/11/26 00:16:23;;;;;;;18.35;5.65;;;7.50;99.90;;;6.49;100.00;102446.59;4234784;28;20030;-74
2022/11/26 00:18:25;;;;;;;12.32;5.00;;;7.40;99.90;;;6.49;100.00;102457.06;4218179;28;20106;-74
2022/11/26 00:20:30;;;;;;;10.38;4.35;;;7.40;99.90;;;6.46;100.00;102458.09;4251881;27;20047;-74
2022/11/26 00:22:48;;;;;;;14.50;5.13;;;7.40;99.90;;;6.40;100.00;102466.31;4251878;27;20029;-74
2022/11/26 00:24:50;;;;;;;16.77;4.75;;;7.30;99.90;;;6.34;100.00;102456.16;4233645;28;20063;-75
2022/11/26 00:26:51;;;;;;;9.18;5.07;;;7.30;99.90;;;6.34;100.00;102458.78;4219354;28;20555;-75
2022/11/26 00:29:00;;;;;;;11.43;4.97;;;7.30;99.90;;;6.38;100.00;102465.56;4219277;28;20028;-74
2022/11/26 00:31:22;;;;;;;14.32;5.28;;;7.30;99.90;;;6.37;100.00;102466.47;4219077;28;20494;-75
2022/11/26 00:33:24;;;;;;;10.38;6.93;;;7.30;99.90;;;6.33;100.00;102451.03;4217918;28;20095;-75
2022/11/26 00:35:25;;;;;;;13.90;7.50;;;7.30;99.90;;;6.33;100.00;102454.47;4251844;27;20023;-75
2022/11/26 00:37:36;;;;;;;12.57;7.53;;;7.30;99.90;;;6.38;100.00;102460.31;4218920;28;20487;-74
2022/11/26 00:39:37;;;;;;;14.70;7.88;;;7.30;99.90;;;6.40;100.00;102462.84;4249730;27;20019;-75
2022/11/26 00:41:39;;;;;;;20.02;10.43;;;7.30;99.90;;;6.38;100.00;102449.84;4251742;27;20549;-74
2022/11/26 00:43:39;;;;;;;22.17;12.27;;;7.30;99.90;;;6.39;100.00;102459.38;4219011;28;20031;-75
2022/11/26 00:45:41;;;;;;;21.98;12.07;;;7.30;99.90;;;6.44;100.00;102457.34;4251340;27;20031;-75
2022/11/26 00:47:42;;;;;;;17.15;10.18;;;7.30;99.90;;;6.43;100.00;102449.56;4217753;28;20050;-74
2022/11/26 00:49:43;;;;;;;18.85;9.95;;;7.30;99.90;;;6.42;100.00;102451.31;4217778;28;20513;-75
2022/11/26 00:51:46;;;;;;;18.02;9.20;;;7.40;99.90;;;6.45;100.00;102456.41;4218817;28;20031;-75
2022/11/26 00:53:48;;;;;;;19.60;9.68;;;7.30;99.90;;;6.46;100.00;102457.25;4251161;27;20019;-75
2022/11/26 00:55:50;;;;;;;14.10;8.10;;;7.30;99.90;;;6.45;100.00;102453.78;4251437;27;20023;-75
2022/11/26 00:57:51;;;;;;;19.48;9.10;;;7.40;99.90;;;6.48;100.00;102460.66;4251213;27;20023;-74
2022/11/26 00:59:52;;;;;;;11.50;7.53;;;7.40;99.90;;;6.42;100.00;102456.56;4217287;28;20031;-75
2022/11/26 01:01:53;;;;;;;20.23;10.18;;;7.40;99.90;;;6.45;100.00;102471.31;4218596;28;20028;-75
2022/11/26 01:03:54;;;;;;;20.13;10.45;;;7.40;99.90;;;6.42;100.00;102467.06;4218764;28;20507;-74
2022/11/26 01:05:57;;;;;;;15.82;8.93;;;7.30;99.90;;;6.45;100.00;102469.50;4217559;28;20098;-75
2022/11/26 01:08:05;;;;;;;18.80;11.10;;;7.30;99.90;;;6.39;100.00;102459.38;4251119;27;20020;-75
2022/11/26 01:10:15;;;;;;;21.25;10.05;;;7.30;99.90;;;6.41;100.00;102449.66;4217115;28;20028;-75
2022/11/26 01:12:16;;;;;;;15.65;10.23;;;7.30;99.90;;;6.46;100.00;102449.38;4217612;28;20028;-75
2022/11/26 01:14:19;;;;;;;32.08;18.42;;;7.40;99.90;;;6.51;100.00;102447.38;4200463;28;20029;-75
2022/11/26 01:16:27;;;;;;;28.40;17.13;;;7.40;99.90;;;6.51;100.00;102444.75;4200524;28;20098;-74
2022/11/26 01:18:33;;;;;;;27.10;14.32;;;7.40;99.90;;;6.50;100.00;102445.66;4216287;28;20028;-75
2022/11/26 01:20:34;;;;;;;24.35;12.48;;;7.40;99.90;;;6.47;100.00;102444.06;4218229;28;20031;-75
2022/11/26 01:22:35;;;;;;;19.92;12.05;;;7.40;99.90;;;6.44;100.00;102444.25;4218650;28;20016;-75
2022/11/26 01:24:35;;;;;;;19.00;10.63;;;7.40;99.90;;;6.45;100.00;102448.53;4217017;28;20025;-75
2022/11/26 01:26:42;;;;;;;18.67;11.63;;;7.40;99.90;;;6.45;100.00;102448.53;4250909;28;20399;-75
2022/11/26 01:28:44;;;;;;;18.13;10.98;;;7.40;99.90;;;6.44;100.00;102439.00;4217482;28;20031;-75
2022/11/26 01:30:45;;;;;;;21.40;12.60;;;7.30;99.90;;;6.44;100.00;102422.41;4217370;28;20523;-75
2022/11/26 01:32:48;;;;;;;20.38;12.18;;;7.40;99.90;;;6.46;100.00;102423.16;4217239;28;20107;-75
2022/11/26 01:34:48;;;;;;;19.98;11.10;;;7.40;99.90;;;6.45;100.00;102418.88;4217357;28;20024;-74
2022/11/26 01:36:49;;;;;;;15.05;10.10;;;7.40;99.90;;;6.44;100.00;102412.78;4218693;28;20024;-75
2022/11/26 01:39:01;;;;;;;17.65;11.18;;;7.30;99.90;;;6.43;100.00;102413.72;4216960;28;20032;-75
2022/11/26 01:41:45;;;;;;;19.45;10.88;;;7.30;99.90;;;6.41;100.00;102412.97;4217066;28;20092;-75
2022/11/26 01:43:50;;;;;;;21.23;10.85;;;7.30;99.90;;;6.37;100.00;102411.44;4218340;28;20038;-74
2022/11/26 01:45:51;;;;;;;16.77;10.25;;;7.30;99.90;;;6.32;100.00;102397.78;4217192;28;20039;-75
2022/11/26 01:47:52;;;;;;;18.17;10.93;;;7.30;99.90;;;6.30;100.00;102401.41;4217175;28;20403;-75
2022/11/26 01:51:03;;;;;;;17.90;9.95;;;7.20;99.90;;;6.30;100.00;102415.34;4217099;28;20032;-75
2022/11/26 01:53:28;;;;;;;15.73;10.57;;;7.20;99.90;;;6.24;100.00;102394.75;4209207;28;20047;-74
2022/11/26 01:55:37;;;;;;;19.05;9.73;;;7.20;99.90;;;6.24;100.00;102397.38;4217248;28;20158;-75
2022/11/26 01:57:38;;;;;;;15.98;9.73;;;7.20;99.90;;;6.18;100.00;102384.63;4250865;28;20541;-75
2022/11/26 01:59:49;;;;;;;22.10;10.63;;;7.10;99.90;;;6.21;100.00;102389.69;4218175;28;20036;-74
2022/11/26 02:01:52;;;;;;;16.58;9.65;;;7.10;99.90;;;6.18;100.00;102371.53;4218218;28;20471;-74
2022/11/26 02:04:18;;;;;;;17.27;10.00;;;7.10;99.90;;;6.16;100.00;102375.13;4250691;28;20031;-75
2022/11/26 02:06:26;;;;;;;21.50;11.30;;;7.10;99.90;;;6.10;100.00;102371.94;4218373;28;20433;-75
2022/11/26 02:08:32;;;;;;;23.80;11.52;;;7.10;99.90;;;6.16;100.00;102385.63;4217057;28;20028;-75
2022/11/26 02:10:33;;;;;;;16.27;11.23;;;7.00;99.90;;;6.14;100.00;102388.34;4220381;28;20103;-75
2022/11/26 02:12:36;;;;;;;18.50;11.18;;;7.10;99.90;;;6.15;100.00;102403.13;4220343;28;20036;-75
2022/11/26 02:14:42;;;;;;;14.82;9.82;;;7.00;99.90;;;6.17;100.00;102413.50;4221648;28;20125;-74
2022/11/26 02:17:15;;;;;;;16.85;11.50;;;7.10;99.90;;;6.13;100.00;102420.69;4219771;28;20123;-75
2022/11/26 02:19:36;;;;;;;18.95;12.68;;;7.00;99.90;;;6.17;100.00;102430.09;4219052;28;20027;-74
2022/11/26 02:21:43;;;;;;;17.63;11.02;;;7.00;99.90;;;6.16;100.00;102427.53;4220812;28;20123;-74
2022/11/26 02:24:28;;;;;;;16.20;11.20;;;7.00;99.90;;;6.15;100.00;102431.97;4219718;28;20028;-75
2022/11/26 02:26:50;;;;;;;17.27;10.70;;;7.10;99.90;;;6.17;100.00;102426.63;4220939;28;20024;-74
2022/11/26 02:29:48;;;;;;;18.08;10.48;;;7.00;99.90;;;6.18;100.00;102431.78;4221382;28;20040;-75
2022/11/26 02:32:16;;;;;;;18.92;12.18;;;7.10;99.90;;;6.14;100.00;102419.78;4202487;28;20033;-75
2022/11/26 02:34:37;;;;;;;20.95;11.93;;;7.10;99.90;;;6.15;100.00;102416.25;4186421;28;20037;-75
2022/11/26 02:36:46;;;;;;;16.70;12.65;;;7.10;99.90;;;6.17;100.00;102416.97;4197237;28;20071;-75
2022/11/26 02:38:47;;;;;;;21.90;12.75;;;7.10;99.90;;;6.13;100.00;102408.44;4219569;28;20031;-75
2022/11/26 02:40:48;;;;;;;20.83;11.32;;;7.10;99.90;;;6.18;100.00;102413.44;4220766;28;20027;-75
2022/11/26 02:42:49;;;;;;;21.77;12.95;;;7.10;99.90;;;6.17;100.00;102418.75;4220782;28;20024;-75
2022/11/26 02:44:51;;;;;;;19.10;12.75;;;7.00;99.90;;;6.14;100.00;102419.78;4220828;28;20027;-75
2022/11/26 02:47:01;;;;;;;21.00;13.38;;;7.10;99.90;;;6.12;100.00;102417.22;4219734;28;20069;-75
2022/11/26 02:49:03;;;;;;;19.90;11.98;;;7.00;99.90;;;6.09;100.00;102413.97;4219470;28;20025;-75
2022/11/26 02:51:13;;;;;;;27.00;11.68;;;7.00;99.90;;;6.09;100.00;102412.16;4219703;28;20111;-75
2022/11/26 02:53:16;;;;;;;25.92;11.40;;;7.00;99.90;;;6.09;100.00;102406.91;4219402;28;20028;-75
2022/11/26 02:55:21;;;;;;;18.23;10.83;;;7.00;99.90;;;6.09;100.00;102420.03;4219494;28;20052;-75
2022/11/26 02:57:28;;;;;;;19.13;9.98;;;7.00;99.90;;;6.09;100.00;102425.25;4219247;28;20266;-75
2022/11/26 02:59:30;;;;;;;18.90;11.25;;;7.00;99.90;;;6.05;100.00;102425.53;4252582;27;20123;-74
2022/11/26 03:01:51;;;;;;;17.25;10.57;;;7.00;99.90;;;6.01;100.00;102427.47;4219299;28;20032;-75
2022/11/26 03:03:55;;;;;;;18.27;11.10;;;7.00;99.90;;;5.97;100.00;102431.19;4219108;28;20028;-74
2022/11/26 03:06:03;;;;;;;21.00;10.55;;;6.90;99.90;;;5.93;100.00;102429.69;4219296;28;20039;-74
2022/11/26 03:08:06;;;;;;;20.95;10.75;;;6.90;99.90;;;5.96;100.00;102423.41;4219298;28;20034;-74
2022/11/26 03:10:07;;;;;;;20.77;9.73;;;6.90;99.90;;;5.93;100.00;102420.97;4220038;28;20032;-75
2022/11/26 03:12:08;;;;;;;22.45;11.27;;;6.80;99.90;;;5.95;100.00;102419.09;4220503;28;20024;-75
2022/11/26 03:14:09;;;;;;;18.65;12.18;;;6.90;99.90;;;5.97;100.00;102404.16;4219390;28;20102;-75
2022/11/26 03:16:10;;;;;;;16.58;10.98;;;6.90;99.90;;;6.03;100.00;102412.50;4219214;28;20028;-75
2022/11/26 03:18:11;;;;;;;22.65;11.80;;;6.90;99.90;;;6.03;100.00;102403.81;4218117;28;20101;-75
2022/11/26 03:20:12;;;;;;;20.67;11.65;;;7.00;99.90;;;6.10;100.00;102410.38;4220027;28;20027;-74
2022/11/26 03:22:14;;;;;;;19.50;11.30;;;7.00;99.90;;;6.18;100.00;102420.47;4218852;28;20041;-74
2022/11/26 03:24:16;;;;;;;20.48;10.85;;;7.10;99.90;;;6.21;100.00;102417.66;4218908;28;20048;-75
2022/11/26 03:26:17;;;;;;;15.38;9.70;;;7.10;99.90;;;6.20;100.00;102416.81;4220001;28;20050;-75
2022/11/26 03:28:18;;;;;;;14.93;8.93;;;7.10;99.90;;;6.23;100.00;102421.88;4235798;28;20518;-75
2022/11/26 03:30:19;;;;;;;15.48;8.73;;;7.10;99.90;;;6.18;100.00;102421.31;4220331;28;20028;-75
2022/11/26 03:32:20;;;;;;;21.48;11.88;;;7.10;99.90;;;6.21;100.00;102415.03;4252329;27;20114;-75
2022/11/26 03:34:21;;;;;;;17.50;9.27;;;7.10;99.90;;;6.21;100.00;102415.03;4219881;28;20032;-75
2022/11/26 03:36:21;;;;;;;14.85;8.90;;;7.10;99.90;;;6.21;100.00;102401.94;4220021;28;20032;-75
2022/11/26 03:38:22;;;;;;;18.02;9.95;;;7.10;99.90;;;6.22;100.00;102404.47;4252505;27;20075;-75
2022/11/26 03:40:23;;;;;;;19.95;9.18;;;7.10;99.90;;;6.21;100.00;102402.78;4218663;28;20031;-75
2022/11/26 03:42:24;;;;;;;15.55;10.38;;;7.10;99.90;;;6.23;100.00;102392.19;4252605;27;20034;-75
2022/11/26 03:44:25;;;;;;;23.77;10.55;;;7.10;99.90;;;6.21;100.00;102394.94;4219836;28;20012;-75
2022/11/26 03:46:26;;;;;;;20.10;11.68;;;7.10;99.90;;;6.22;100.00;102399.22;4219834;28;20035;-75
2022/11/26 03:48:26;;;;;;;23.50;10.07;;;7.10;99.90;;;6.26;100.00;102405.97;4219747;28;20027;-74
2022/11/26 03:50:27;;;;;;;18.10;9.82;;;7.10;99.90;;;6.25;100.00;102406.91;4218519;28;20037;-75
2022/11/26 03:52:28;;;;;;;19.70;11.27;;;7.10;99.90;;;6.22;100.00;102395.75;4219534;28;20073;-75
2022/11/26 03:54:29;;;;;;;27.77;13.43;;;7.20;99.90;;;6.19;100.00;102409.03;4219676;28;20027;-74
2022/11/26 03:56:30;;;;;;;24.55;15.07;;;7.10;99.90;;;6.16;100.00;102412.66;4218633;28;20027;-75
2022/11/26 03:58:31;;;;;;;22.63;13.63;;;7.10;99.90;;;6.12;100.00;102411.16;4219617;28;20028;-74
2022/11/26 04:00:31;;;;;;;22.55;13.57;;;7.10;99.90;;;6.10;100.00;102402.53;4219330;28;20028;-75
2022/11/26 04:02:33;;;;;;;26.33;13.93;;;7.00;99.90;;;6.02;100.00;102378.56;4219957;28;20089;-74
2022/11/26 04:04:34;;;;;;;22.15;12.85;;;7.00;99.90;;;6.03;100.00;102388.13;4219612;28;20126;-75
2022/11/26 04:06:35;;;;;;;29.65;15.77;;;7.00;99.90;;;5.99;100.00;102392.66;4218246;28;20140;-75
2022/11/26 04:08:36;;;;;;;35.33;17.92;;;6.90;99.90;;;5.99;100.00;102391.81;4234595;28;20161;-75
2022/11/26 04:10:37;;;;;;;30.17;16.08;;;6.90;99.90;;;5.95;100.00;102378.06;4218306;28;20511;-75
2022/11/26 04:12:38;;;;;;;37.90;18.15;;;6.90;99.90;;;5.93;100.00;102377.31;4218498;28;20028;-75
2022/11/26 04:14:39;;;;;;;51.17;21.85;;;6.90;99.90;;;5.92;100.00;102375.59;4219468;28;20024;-75
2022/11/26 04:16:40;;;;;;;39.22;18.38;;;6.90;99.90;;;5.90;100.00;102380.09;4219147;28;20513;-75
2022/11/26 04:18:41;;;;;;;30.77;14.55;;;6.90;99.90;;;5.91;100.00;102388.81;4217181;28;20051;-75
2022/11/26 04:20:41;;;;;;;22.38;12.60;;;6.90;99.90;;;5.92;100.00;102393.09;4219042;28;20059;-74
2022/11/26 04:22:42;;;;;;;23.00;11.55;;;6.80;99.90;;;5.96;100.00;102394.63;4218000;28;20056;-75
2022/11/26 04:24:43;;;;;;;33.35;16.55;;;6.80;99.90;;;5.93;100.00;102394.78;4218964;28;20400;-75
2022/11/26 04:26:44;;;;;;;35.28;15.10;;;6.90;99.90;;;5.95;100.00;102403.38;4217915;28;20028;-74
2022/11/26 04:28:45;;;;;;;34.67;14.98;;;6.80;99.90;;;5.92;100.00;102399.19;4218118;28;20016;-75
2022/11/26 04:30:46;;;;;;;41.30;18.92;;;6.90;99.90;;;5.91;100.00;102400.09;4217596;28;20024;-74
2022/11/26 04:32:46;;;;;;;39.67;19.85;;;6.90;99.90;;;5.93;100.00;102407.88;4216352;28;20027;-75
2022/11/26 04:34:47;;;;;;;42.25;23.13;;;6.90;99.90;;;5.93;100.00;102411.34;4217657;28;20083;-74
2022/11/26 04:36:48;;;;;;;42.80;22.40;;;6.80;99.90;;;5.92;100.00;102414.03;4218024;28;20028;-75
2022/11/26 04:38:49;;;;;;;45.33;25.08;;;6.80;99.90;;;5.92;100.00;102414.03;4217447;28;20024;-75
2022/11/26 04:40:50;;;;;;;37.97;21.00;;;6.80;99.90;;;5.90;100.00;102419.38;4217627;28;20579;-75
2022/11/26 04:42:51;;;;;;;32.72;19.50;;;6.80;99.90;;;5.89;100.00;102420.28;4218862;28;20032;-74
2022/11/26 04:44:51;;;;;;;34.83;18.88;;;6.80;99.90;;;5.92;100.00;102419.28;4219201;28;20021;-74
2022/11/26 04:46:52;;;;;;;40.72;21.17;;;6.80;99.90;;;5.88;100.00;102412.53;4218879;28;20054;-75
2022/11/26 04:48:53;;;;;;;41.72;23.05;;;6.80;99.90;;;5.96;100.00;102418.19;4217664;28;20020;-75
2022/11/26 04:50:54;;;;;;;36.97;20.42;;;6.90;99.90;;;5.97;100.00;102414.66;4217368;28;20058;-74
2022/11/26 04:52:55;;;;;;;35.63;19.50;;;6.90;99.90;;;5.95;100.00;102408.63;4218997;28;20105;-74
2022/11/26 04:54:56;;;;;;;30.98;15.55;;;6.90;99.90;;;5.92;100.00;102403.56;4217444;28;20039;-75
2022/11/26 04:56:56;;;;;;;24.58;12.70;;;6.90;99.90;;;5.97;100.00;102412.03;4219091;28;20031;-75
2022/11/26 04:58:57;;;;;;;22.63;11.10;;;6.90;99.90;;;5.92;100.00;102408.81;4218621;28;20039;-75
2022/11/26 05:00:59;;;;;;;19.88;10.43;;;6.80;99.90;;;5.96;100.00;102412.94;4218480;28;20391;-75
2022/11/26 05:03:00;;;;;;;20.52;9.43;;;6.90;99.90;;;5.95;100.00;102406.84;4217634;28;20391;-75
2022/11/26 05:05:01;;;;;;;18.13;8.93;;;6.80;99.90;;;5.94;100.00;102407.78;4218603;28;20035;-75
2022/11/26 05:07:02;;;;;;;15.82;7.70;;;6.80;99.90;;;5.93;100.00;102408.72;4218502;28;20456;-75
2022/11/26 05:09:04;;;;;;;15.55;7.13;;;6.80;99.90;;;5.91;100.00;102407.94;4251176;27;20030;-75
2022/11/26 05:11:05;;;;;;;13.40;6.28;;;6.90;99.90;;;5.95;100.00;102411.25;4217519;28;20115;-74
2022/11/26 05:13:06;;;;;;;13.15;5.88;;;6.90;99.90;;;5.96;100.00;102420.81;4218523;28;20052;-75
2022/11/26 05:15:07;;;;;;;15.55;6.30;;;6.80;99.90;;;5.93;100.00;102413.13;4218425;28;20055;-74
2022/11/26 05:17:08;;;;;;;12.55;6.60;;;6.90;99.90;;;5.95;100.00;102429.59;4218748;28;20032;-74
2022/11/26 05:19:09;;;;;;;12.77;7.45;;;6.80;99.90;;;5.95;100.00;102429.59;4217619;28;20381;-75
2022/11/26 05:21:10;;;;;;;15.73;8.77;;;6.90;99.90;;;5.94;100.00;102423.50;4251015;28;20039;-75
2022/11/26 05:23:11;;;;;;;16.67;8.93;;;6.90;99.90;;;5.97;100.00;102430.38;4218117;28;20040;-75
2022/11/26 05:25:12;;;;;;;29.42;11.27;;;6.90;99.90;;;5.96;100.00;102440.00;4251228;28;20485;-74
2022/11/26 05:27:13;;;;;;;15.82;9.50;;;6.90;99.90;;;5.96;100.00;102440.00;4217414;28;20038;-75
2022/11/26 05:29:13;;;;;;;15.00;9.18;;;6.90;99.90;;;5.97;100.00;102438.22;4251132;28;20050;-75
2022/11/26 05:31:15;;;;;;;22.52;10.13;;;6.90;99.90;;;5.97;100.00;102444.28;4218276;28;20032;-75
2022/11/26 05:33:15;;;;;;;20.02;10.18;;;6.90;99.90;;;5.97;100.00;102440.84;4218645;28;20031;-75
2022/11/26 05:35:16;;;;;;;15.13;9.52;;;6.90;99.90;;;5.92;100.00;102443.69;4218403;28;20032;-75
2022/11/26 05:37:17;;;;;;;20.23;9.15;;;6.90;99.90;;;5.97;100.00;102444.28;4251073;28;20019;-75
2022/11/26 05:39:18;;;;;;;17.80;8.80;;;6.90;99.90;;;6.04;100.00;102442.16;4216649;28;20043;-75
2022/11/26 05:41:19;;;;;;;17.08;9.77;;;6.90;99.90;;;6.08;100.00;102441.94;4218437;28;20028;-75
2022/11/26 05:43:20;;;;;;;15.95;9.07;;;7.00;99.90;;;6.11;100.00;102443.53;4253227;27;20024;-74
2022/11/26 05:45:21;;;;;;;16.60;8.23;;;7.10;99.90;;;6.13;100.00;102449.50;4221736;28;20030;-75
2022/11/26 05:47:22;;;;;;;16.10;8.10;;;7.10;99.90;;;6.10;100.00;102455.78;4221568;28;20050;-74
2022/11/26 05:49:23;;;;;;;14.88;8.00;;;7.00;99.90;;;6.06;100.00;102451.63;4221729;28;20099;-75
2022/11/26 05:51:24;;;;;;;15.82;7.88;;;7.00;99.90;;;6.05;100.00;102449.09;4254571;27;20031;-74
2022/11/26 05:53:25;;;;;;;22.52;7.72;;;7.00;99.90;;;6.01;100.00;102456.28;4221404;28;20027;-74
2022/11/26 05:55:26;;;;;;;14.65;7.50;;;7.00;99.90;;;6.00;100.00;102448.53;4221417;28;20042;-75
2022/11/26 05:57:26;;;;;;;16.55;8.40;;;6.90;99.90;;;5.93;100.00;102441.94;4254534;27;20019;-75
2022/11/26 05:59:28;;;;;;;11.90;6.93;;;6.80;99.90;;;5.95;100.00;102445.28;4220289;28;20050;-75
2022/11/26 06:01:29;;;;;;;15.65;7.70;;;6.90;99.90;;;5.89;100.00;102433.38;4221503;28;20076;-75
2022/11/26 06:03:29;;;;;;;13.73;7.43;;;6.80;99.90;;;5.93;100.00;102440.16;4254051;27;20031;-75
2022/11/26 06:05:30;;;;;;;13.70;6.70;;;6.90;99.90;;;5.92;100.00;102441.06;4220333;28;20510;-75
2022/11/26 06:07:31;;;;;;;12.75;6.63;;;6.90;99.90;;;5.95;100.00;102437.44;4221574;28;20399;-75
2022/11/26 06:09:32;;;;;;;23.58;7.60;;;6.90;99.90;;;5.96;100.00;102439.13;4221148;28;20016;-74
2022/11/26 06:11:33;;;;;;;9.60;6.00;;;6.90;99.90;;;5.97;100.00;102435.59;4220046;28;20039;-75
2022/11/26 06:13:34;;;;;;;12.75;5.57;;;6.90;99.90;;;5.98;100.00;102438.13;4219940;28;20447;-75
2022/11/26 06:15:35;;;;;;;11.13;5.95;;;6.90;99.90;;;5.97;100.00;102427.75;4220146;28;20094;-75
2022/11/26 06:17:35;;;;;;;17.70;5.95;;;7.00;99.90;;;6.03;100.00;102433.47;4221161;28;20052;-75
2022/11/26 06:19:36;;;;;;;12.57;6.03;;;7.00;99.90;;;6.03;100.00;102433.47;4220516;28;20039;-75
2022/11/26 06:21:37;;;;;;;11.05;4.50;;;7.00;99.90;;;6.05;100.00;102430.78;4220970;28;20040;-75
2022/11/26 06:23:39;;;;;;;10.18;5.28;;;7.00;99.90;;;6.03;100.00;102428.22;4220938;28;20081;-75
2022/11/26 06:25:41;;;;;;;12.77;4.80;;;7.00;99.90;;;6.03;100.00;102422.97;4221357;28;20076;-75
2022/11/26 06:27:42;;;;;;;12.48;4.80;;;7.00;99.90;;;6.03;100.00;102420.38;4221146;28;20028;-75
2022/11/26 06:29:43;;;;;;;10.27;5.00;;;7.00;99.90;;;6.06;100.00;102414.13;4253625;27;20059;-74
2022/11/26 06:31:44;;;;;;;7.35;4.32;;;7.00;99.90;;;6.04;100.00;102415.97;4220760;28;20051;-74
2022/11/26 06:33:45;;;;;;;12.82;6.10;;;7.00;99.90;;;6.01;100.00;102408.28;4253689;27;20031;-75
2022/11/26 06:35:46;;;;;;;12.50;5.57;;;7.00;99.90;;;6.01;100.00;102414.38;4219793;28;20024;-75
2022/11/26 06:37:47;;;;;;;13.43;5.82;;;7.00;99.90;;;6.01;100.00;102397.81;4220768;28;20032;-75
2022/11/26 06:39:48;;;;;;;13.75;6.90;;;7.00;99.90;;;6.01;100.00;102392.56;4220654;28;20100;-75
2022/11/26 06:41:49;;;;;;;13.82;6.93;;;7.00;99.90;;;6.05;100.00;102400.19;4236497;28;20418;-75
2022/11/26 06:43:49;;;;;;;15.30;7.78;;;7.00;99.90;;;6.01;100.00;102392.56;4220934;28;20153;-75
2022/11/26 06:45:50;;;;;;;14.93;8.63;;;7.00;99.90;;;6.04;100.00;102397.63;4220660;28;20031;-75
2022/11/26 06:47:51;;;;;;;19.33;9.18;;;7.00;99.90;;;6.04;100.00;102398.50;4220551;28;20479;-74
2022/11/26 06:49:52;;;;;;;21.50;9.52;;;7.00;99.90;;;6.04;100.00;102400.25;4253406;27;20023;-75
2022/11/26 06:51:54;;;;;;;16.13;8.30;;;7.00;99.90;;;6.01;100.00;102395.19;4220642;28;20056;-75
2022/11/26 06:53:55;;;;;;;18.88;9.68;;;6.90;99.90;;;5.97;100.00;102394.50;4219840;28;20103;-75
2022/11/26 06:56:03;;;;;;;17.05;8.18;;;6.90;99.90;;;5.98;100.00;102397.97;4252976;27;20075;-75
2022/11/26 06:58:04;;;;;;;17.88;7.22;;;6.90;99.90;;;5.97;100.00;102396.31;4220681;28;20071;-75
2022/11/26 07:00:06;;;;;;;17.25;8.05;;;6.90;99.90;;;5.94;100.00;102391.25;4253280;27;20027;-75
2022/11/26 07:02:08;;;;;;;16.95;6.65;;;6.90;99.90;;;5.93;100.00;102382.53;4220242;28;20052;-75
2022/11/26 07:04:10;;;;;;;13.63;6.47;;;6.80;99.90;;;5.93;100.00;102387.78;4220068;28;20024;-75
2022/11/26 07:06:23;;;;;;;18.92;5.95;;;6.80;99.90;;;5.94;100.00;102393.88;4252904;27;20059;-75
2022/11/26 07:08:24;;;;;;;14.25;5.43;;;6.90;99.90;;;5.90;100.00;102387.09;4218816;28;20028;-75
2022/11/26 07:10:25;;;;;;;8.13;4.90;;;6.80;99.90;;;5.89;100.00;102394.09;4220200;28;20036;-75
2022/11/26 07:12:26;;;;;;;10.38;5.30;;;6.80;99.90;;;5.87;100.00;102389.88;4253202;27;20070;-75
2022/11/26 07:14:27;;;;;;;9.52;5.38;;;6.80;99.90;;;5.92;100.00;102391.31;4220385;28;20062;-75
2022/11/26 07:16:28;;;;;;;11.85;5.72;;;6.80;99.90;;;5.95;100.00;102392.91;4253032;27;20031;-75
2022/11/26 07:18:29;;;;;;;10.57;4.45;;;6.80;99.90;;;5.93;100.00;102389.53;4252163;27;20136;-75
2022/11/26 07:20:30;;;;;;;10.23;4.72;;;6.90;99.90;;;5.93;100.00;102387.78;4220366;28;20028;-75
2022/11/26 07:22:32;;;;;;;10.00;4.55;;;6.90;99.90;;;5.89;100.00;102395.88;4203470;28;20044;-75
2022/11/26 07:24:33;;;;;;;15.13;5.03;;;6.90;99.90;;;5.88;100.00;102391.59;4202030;28;20020;-74
2022/11/26 07:26:34;;;;;;;6.97;4.22;;;6.80;99.90;;;5.81;100.00;102385.81;4202956;28;20031;-75
2022/11/26 07:28:35;;;;;;;15.63;5.47;;;6.80;99.90;;;5.79;100.00;102392.91;4202198;28;20511;-75
2022/11/26 07:30:36;;;;;;;13.82;5.25;;;6.70;99.90;;;5.74;100.00;102394.91;4203293;28;20108;-75
2022/11/26 07:32:38;;;;;;;14.00;4.43;;;6.70;99.90;;;5.72;100.00;102402.03;4185351;28;20036;-75
2022/11/26 07:34:39;;;;;;;10.20;4.45;;;6.70;99.90;;;5.69;100.00;102410.06;4202283;28;20043;-75
2022/11/26 07:36:42;;;;;;;12.82;5.30;;;6.60;99.90;;;5.68;100.00;102407.50;4202399;28;20024;-75
2022/11/26 07:38:43;;;;;;;13.32;5.40;;;6.60;99.90;;;5.68;100.00;102399.66;4185356;28;20029;-75
2022/11/26 07:40:44;;;;;;;12.80;5.05;;;6.60;99.90;;;5.65;100.00;102394.56;4203237;28;20460;-75
2022/11/26 07:42:45;;;;;;;16.15;5.47;;;6.60;99.90;;;5.61;100.00;102387.84;4202951;28;20032;-75
2022/11/26 07:44:46;;;;;;;10.93;4.28;;;6.50;99.90;;;5.59;100.00;102391.38;4203135;28;20028;-75
2022/11/26 07:46:46;;;;;;;11.40;4.57;;;6.50;99.90;;;5.57;100.00;102389.78;4203033;28;20016;-75
2022/11/26 07:48:48;;;;;;;8.48;4.05;;;6.50;99.90;;;5.55;100.00;102392.47;4202999;28;20051;-75
2022/11/26 07:50:49;;;;;;;13.77;4.43;;;6.50;99.90;;;5.56;100.00;102396.78;4201685;28;20028;-74
2022/11/26 07:52:51;;;;;;;13.57;4.72;;;6.50;99.90;;;5.55;100.00;102389.84;4201757;28;20119;-75
2022/11/26 07:54:52;;;;;;;9.55;4.05;;;6.50;99.90;;;5.51;100.00;102393.56;4201707;28;20039;-75
2022/11/26 07:56:53;;;;;;;13.93;4.72;;;6.50;99.90;;;5.52;100.00;102382.19;4201581;28;20033;-75
2022/11/26 07:58:54;;;;;;;7.60;4.20;;;6.50;99.90;;;5.54;100.00;102367.25;4202690;28;20062;-75
2022/11/26 08:00:55;;;;;;;12.95;4.65;;;6.50;99.90;;;5.57;100.00;102361.84;4203015;28;20032;-75
2022/11/26 08:02:56;;;;;;;10.43;4.35;;;6.50;99.90;;;5.61;100.00;102361.66;4201643;28;20052;-75
2022/11/26 08:04:56;;;;;;;8.25;3.97;;;6.50;99.90;;;5.63;100.00;102380.75;4201502;28;20032;-75
2022/11/26 08:06:57;;;;;;;7.22;4.28;;;6.50;99.90;;;5.65;100.00;102386.72;4202219;28;20029;-75
2022/11/26 08:09:01;;;;;;;12.73;4.50;;;6.60;99.90;;;5.70;100.00;102392.56;4202480;28;20074;-75
2022/11/26 08:11:04;;;;;;;16.20;6.00;;;6.60;99.90;;;5.73;100.00;102397.63;4184982;28;20589;-75
2022/11/26 08:13:05;;;;;;;10.80;5.05;;;6.70;99.90;;;5.78;100.00;102379.88;4201446;28;20043;-74
2022/11/26 08:15:07;;;;;;;12.63;4.18;;;6.70;99.90;;;5.84;100.00;102380.41;4202405;28;20028;-75
2022/11/26 08:17:08;;;;;;;7.93;4.40;;;6.70;99.90;;;5.90;100.00;102368.78;4201411;28;20024;-75
2022/11/26 08:19:12;;;;;;;16.50;4.97;;;6.80;99.90;;;5.99;100.00;102368.25;4201258;28;20029;-75
2022/11/26 08:21:13;;;;;;;12.10;4.32;;;6.90;99.90;;;6.04;100.00;102369.66;4206846;28;20075;-74
2022/11/26 08:23:14;;;;;;;11.57;6.03;;;7.00;99.90;;;6.15;100.00;102370.84;4217622;28;20431;-74
2022/11/26 08:25:15;;;;;;;18.00;5.68;;;7.10;99.90;;;6.22;100.00;102361.69;4219519;28;20029;-75
2022/11/26 08:27:16;;;;;;;9.85;5.28;;;7.10;99.90;;;6.34;100.00;102368.84;4217965;28;20027;-75
2022/11/26 08:29:17;;;;;;;20.27;8.25;;;7.20;99.90;;;6.42;100.00;102371.88;4219153;28;20031;-74
2022/11/26 08:31:18;;;;;;;14.90;5.65;;;7.30;99.90;;;6.51;100.00;102374.78;4218951;28;20028;-74
2022/11/26 08:33:19;;;;;;;17.80;6.25;;;7.30;99.90;;;6.56;100.00;102366.66;4218878;28;20032;-75